Haynes, AR (72341)

4:02 PM CDT en Abril 19, 2015 (GMT -0500)
marianna,arrkansas | | Change Station
CLOSE
Current Station
Estación meteorológica personal
Location: Marianna, AR
Altura: 230 ft
Estaciones meteorológicas cercanas
Aviso en curso: Flood Advisory

Alt 230 ft 34.77 °N, 90.77 °W | Updated 1 minute ago

Despejado
Despejado
78.8 ° F
Sensación térmica 81 ° F
N
5.3
Viento Variable Viento desde OSO

Hoy
Alta -- | Baja -- ° F
--% Posibilidad de precipitaciones
Ayer
Alta -- | Baja -- ° F
Precip. -- pul
6:26 AM 7:38 PM
Luna nueva, 2% visible
Presión 29.65 pul
Visibilidad 10.0 Millas
Nubes Despejado
Índice de calor 81 ° F
Punto de rocío 64 ° F
Humedad 61%
Precipitaciones 0.86 pul
Espesor de la nieve No disponible.
UV 6 de una escala de 12
Polen 8.10 de una escala de 12
Calidad del aire No disponible.
Flu Activity Sporadic
METAR KUTA 192055Z AUTO 23012KT 10SM CLR 24/16 A2965 RMK AO2

More Conditions Fewer Conditions

Presión 29.65 pul
Visibilidad 10.0 Millas
Nubes Despejado
Índice de calor 81 ° F
Punto de rocío 64 ° F
Humedad 61%
Precipitaciones 0.86 pul
Espesor de la nieve No disponible.
UV 6 de una escala de 12
Polen 8.10 de una escala de 12
Calidad del aire No disponible.
Flu Activity Sporadic
METAR KUTA 192055Z AUTO 23012KT 10SM CLR 24/16 A2965 RMK AO2

More Conditions Fewer Conditions

10-Day Weather Forecast

Almanac

Astronomía

Apr. 19, 2015 Salida Puesta
Hora real
Crepúsculo civil
Crepúsculo náutico
Crepúsculo astronómico
Luna
Horas de luz
Horas de luz
Tomorrow will be .
, % of the Moon is Illuminated

Extremos de hoy

Máximos del estado Bajos del estado

Community

WunderPhotos

Upload Photos

1,814,980 ¡fotos cargadas!

WunderBlogs® & News

Nearby

Calidad del aire

  Calidad del aire Índice AQ Contaminante
Not available.

Grosos de nieve

Estación Profundido Altura

Actividad de terremotos

Ciudad Distance Mag. Tiempo y dato
Magnitud mínima muestra es 2,5.

Temperaturas de aguas costeras

Lugar Temperatura

Stations

Estaciones meteorológicas cercanas

Ubicación de la estación Temp. Vientos helados Punto de rocío Humedad Viento Precip. Alt Actualizado Tipo
                   
Flood Advisory
Statement as of 11:53 AM CDT en Abril 19, 2015

The National Weather Service in Memphis TN has issued a
* Flood Advisory for
the Mississippi River at Tunica Riverpark
* from Sunday April 19 until Thursday April 23.
* At 10 am Sunday the stage was 38.9 feet.
* Flood stage is 41.0 feet.
* Forecast... the river will rise to near 39.5 feet Saturday April 25.
* At 40.0 feet... casinos are open and unaffected. In Mississippi,
roads to hunting camps in the Duck Lake and Flower Lake areas are
flooded. South evacuation Road from Bordeaux Island is flooded. In
Arkansas, Road to fields inside the levee south of Horseshoe Lake
are covered.


Lat... Lon 3491 9062 3491 9022 3480 9034 3450 9051
      3455 9059 3476 9074